Time;durP1;ratioP1;P1;durP2;ratioP2;P2;SDS_P1;SDS_P2;PMS_P1;PMS_P2;Temp;Humidity;BMP_temperature;BMP_pressure;BME280_temperature;BME280_humidity;BME280_pressure;Samples;Min_cycle;Max_cycle;Signal;HPM_P1;HPM_P2
2023/12/03 00:00:28;;;;;;;26.80;3.90;;;;;;;;;;5093511;28;20039;-71
2023/12/03 00:03:33;;;;;;;25.48;4.55;;;;;;;;;;5093496;28;20043;-71
2023/12/03 00:06:37;;;;;;;30.70;4.68;;;;;;;;;;5092699;28;20039;-70
2023/12/03 00:09:42;;;;;;;35.60;4.93;;;;;;;;;;5093330;28;20051;-69
2023/12/03 00:12:46;;;;;;;21.08;4.38;;;;;;;;;;5093100;28;20040;-71
2023/12/03 00:15:50;;;;;;;21.95;3.95;;;;;;;;;;5093426;28;20055;-70
2023/12/03 00:18:55;;;;;;;27.15;5.68;;;;;;;;;;5093307;28;20047;-70
2023/12/03 00:22:00;;;;;;;32.78;6.28;;;;;;;;;;5093142;28;20510;-71
2023/12/03 00:25:04;;;;;;;24.48;3.97;;;;;;;;;;5080750;28;20107;-70
2023/12/03 00:28:08;;;;;;;33.15;5.00;;;;;;;;;;5092955;28;20047;-70
2023/12/03 00:31:12;;;;;;;35.15;6.82;;;;;;;;;;5092843;28;20071;-70
2023/12/03 00:34:16;;;;;;;21.75;4.55;;;;;;;;;;5093067;28;20042;-71
2023/12/03 00:37:21;;;;;;;21.88;4.55;;;;;;;;;;5092872;28;20059;-71
2023/12/03 00:40:25;;;;;;;30.90;4.63;;;;;;;;;;5093024;28;20043;-71
2023/12/03 00:43:30;;;;;;;26.70;3.90;;;;;;;;;;5092854;28;20051;-71
2023/12/03 00:46:34;;;;;;;25.90;4.50;;;;;;;;;;5092775;28;20047;-70
2023/12/03 00:49:38;;;;;;;32.63;6.00;;;;;;;;;;5092504;28;20510;-70
2023/12/03 00:52:43;;;;;;;27.10;4.45;;;;;;;;;;5092287;28;20399;-71
2023/12/03 00:55:47;;;;;;;28.83;5.63;;;;;;;;;;5092543;28;20051;-70
2023/12/03 00:58:51;;;;;;;26.95;5.15;;;;;;;;;;5079963;28;20596;-70
2023/12/03 01:01:55;;;;;;;26.80;4.82;;;;;;;;;;5092306;28;20498;-71
2023/12/03 01:05:00;;;;;;;30.63;4.57;;;;;;;;;;5092421;28;20043;-70
2023/12/03 01:08:04;;;;;;;31.35;5.13;;;;;;;;;;5092155;28;20047;-70
2023/12/03 01:11:10;;;;;;;28.88;5.32;;;;;;;;;;5092149;28;20059;-71
2023/12/03 01:14:14;;;;;;;26.58;4.15;;;;;;;;;;5092318;28;20043;-71
2023/12/03 01:17:18;;;;;;;25.67;4.88;;;;;;;;;;5091907;28;20634;-71
2023/12/03 01:20:22;;;;;;;30.63;5.28;;;;;;;;;;5092297;28;20197;-70
2023/12/03 01:23:27;;;;;;;32.22;4.88;;;;;;;;;;5091846;28;20043;-71
2023/12/03 01:26:31;;;;;;;28.10;4.65;;;;;;;;;;5092116;28;20047;-70
2023/12/03 01:29:35;;;;;;;20.30;4.00;;;;;;;;;;5092036;28;20055;-70
2023/12/03 01:32:40;;;;;;;27.08;4.22;;;;;;;;;;5079463;28;20043;-70
2023/12/03 01:35:44;;;;;;;35.45;3.85;;;;;;;;;;5092077;28;20054;-70
2023/12/03 01:38:49;;;;;;;26.55;4.82;;;;;;;;;;5091733;28;20110;-70
2023/12/03 01:41:53;;;;;;;26.77;5.30;;;;;;;;;;5091659;28;20043;-70
2023/12/03 01:44:57;;;;;;;24.10;5.07;;;;;;;;;;5091670;28;20043;-70
2023/12/03 01:48:02;;;;;;;34.63;4.35;;;;;;;;;;5091889;28;20039;-70
2023/12/03 01:51:06;;;;;;;30.55;5.63;;;;;;;;;;5091514;28;20055;-70
2023/12/03 01:54:10;;;;;;;28.58;5.22;;;;;;;;;;5091479;28;20043;-70
2023/12/03 01:57:14;;;;;;;32.60;4.45;;;;;;;;;;5091605;28;20047;-70
2023/12/03 02:00:19;;;;;;;24.88;4.32;;;;;;;;;;5091556;28;20043;-70
2023/12/03 02:03:24;;;;;;;24.45;4.45;;;;;;;;;;5091299;28;20047;-70
2023/12/03 02:06:28;;;;;;;19.58;4.32;;;;;;;;;;5091191;28;20039;-70
2023/12/03 02:09:33;;;;;;;24.38;4.00;;;;;;;;;;5091294;28;20055;-70
2023/12/03 02:12:37;;;;;;;22.65;3.92;;;;;;;;;;5091105;28;20039;-70
2023/12/03 02:15:42;;;;;;;22.30;4.82;;;;;;;;;;5091269;28;20046;-70
2023/12/03 02:18:46;;;;;;;29.90;4.60;;;;;;;;;;5091049;28;20047;-70
2023/12/03 02:21:50;;;;;;;34.75;4.25;;;;;;;;;;5091000;28;20186;-70
2023/12/03 02:24:54;;;;;;;18.27;3.45;;;;;;;;;;5091327;28;20595;-70
2023/12/03 02:27:59;;;;;;;25.35;4.53;;;;;;;;;;5091095;28;20055;-70
2023/12/03 02:31:04;;;;;;;21.63;3.67;;;13.90;97.40;;;;;;5097578;28;20047;-70
2023/12/03 02:34:08;;;;;;;22.33;3.83;;;;;;;;;;5097658;28;20043;-71
2023/12/03 02:37:12;;;;;;;25.13;4.10;;;;;;;;;;5097922;28;20479;-71
2023/12/03 02:40:16;;;;;;;22.52;4.38;;;;;;;;;;5097957;28;20039;-70
2023/12/03 02:43:20;;;;;;;17.67;3.95;;;;;;;;;;5097908;28;20042;-71
2023/12/03 02:46:25;;;;;;;28.13;4.15;;;;;;;;;;5097916;28;20063;-71
2023/12/03 02:49:29;;;;;;;22.20;3.78;;;;;;;;;;5097948;28;20499;-71
2023/12/03 02:52:34;;;;;;;16.42;3.13;;;;;;;;;;5097825;28;20047;-71
2023/12/03 02:55:38;;;;;;;13.98;3.17;;;;;;;;;;5097955;28;20047;-72
2023/12/03 02:58:42;;;;;;;24.17;4.00;;;;;;;;;;5097832;28;20387;-71
2023/12/03 03:01:47;;;;;;;27.42;3.47;;;;;;;;;;5085138;28;20043;-71
2023/12/03 03:04:51;;;;;;;17.67;3.20;;;;;;;;;;5097748;28;20046;-71
2023/12/03 03:07:55;;;;;;;21.95;2.83;;;;;;;;;;5097476;28;20043;-71
2023/12/03 03:10:59;;;;;;;19.30;3.47;;;;;;;;;;5097278;28;20411;-71
2023/12/03 03:14:05;;;;;;;17.10;3.28;;;;;;;;;;5097190;28;20043;-71
2023/12/03 03:17:09;;;;;;;21.92;3.22;;;;;;;;;;5097072;28;20055;-71
2023/12/03 03:20:15;;;;;;;23.00;3.63;;;;;;;;;;5097499;28;20047;-71
2023/12/03 03:23:20;;;;;;;16.63;3.08;;;;;;;;;;5097075;28;20048;-71
2023/12/03 03:26:24;;;;;;;19.95;3.35;;;;;;;;;;5097400;28;20042;-71
2023/12/03 03:29:28;;;;;;;17.95;3.63;;;;;;;;;;5097163;28;20513;-71
2023/12/03 03:32:33;;;;;;;18.70;3.67;;;;;;;;;;5097359;28;20055;-71
2023/12/03 03:35:38;;;;;;;14.38;2.97;;;;;;;;;;5097468;28;20498;-71
2023/12/03 03:38:44;;;;;;;18.63;3.42;;;;;;;;;;5097427;28;20046;-71
2023/12/03 03:41:48;;;;;;;22.05;3.47;;;;;;;;;;5093413;28;20043;-71
2023/12/03 03:44:52;;;;;;;16.98;3.58;;;;;;;;;;5094033;28;20043;-71
2023/12/03 03:47:57;;;;;;;27.48;4.10;;;;;;;;;;5081553;28;20392;-71
2023/12/03 03:51:01;;;;;;;17.15;3.15;;;;;;;;;;5093880;28;20055;-71
2023/12/03 03:54:05;;;;;;;22.52;4.00;;;;;;;;;;5094139;28;20051;-71
2023/12/03 03:57:10;;;;;;;19.45;4.13;;;;;;;;;;5094356;28;20051;-71
2023/12/03 04:00:14;;;;;;;17.10;3.78;;;;;;;;;;5093544;28;20039;-70
2023/12/03 04:03:19;;;;;;;22.05;3.72;;;;;;;;;;5093276;28;20510;-70
2023/12/03 04:06:23;;;;;;;20.55;3.55;;;;;;;;;;5093661;28;20039;-71
2023/12/03 04:09:28;;;;;;;38.75;4.55;;;;;;;;;;5093704;28;20063;-70
2023/12/03 04:12:33;;;;;;;16.00;4.13;;;;;;;;;;5093305;28;20051;-71
2023/12/03 04:15:37;;;;;;;19.73;4.57;;;;;;;;;;5093614;28;20043;-70
2023/12/03 04:18:42;;;;;;;16.85;4.90;;;;;;;;;;5053182;28;20060;-70
2023/12/03 04:21:46;;;;;;;25.25;4.45;;;;;;;;;;5053013;28;20047;-70
2023/12/03 04:24:50;;;;;;;25.67;5.45;;;;;;;;;;5052936;28;20107;-70
2023/12/03 04:27:55;;;;;;;20.48;4.80;;;;;;;;;;5053229;28;20059;-70
2023/12/03 04:30:59;;;;;;;20.48;4.75;;;;;;;;;;5052894;28;20052;-70
2023/12/03 04:34:03;;;;;;;17.40;4.30;;;;;;;;;;5052886;28;20040;-70
2023/12/03 04:37:08;;;;;;;19.95;3.88;;;;;;;;;;5052784;28;20040;-70
2023/12/03 04:40:12;;;;;;;25.55;4.35;;;;;;;;;;5052684;28;20424;-70
2023/12/03 04:43:17;;;;;;;21.75;3.65;;;;;;;;;;5052722;28;20048;-70
2023/12/03 04:46:21;;;;;;;26.08;4.43;;;;;;;;;;5052823;28;20393;-70
2023/12/03 04:49:26;;;;;;;20.38;3.80;;;;;;;;;;5052632;28;20047;-70
2023/12/03 04:52:30;;;;;;;17.77;3.58;;;;;;;;;;5051973;28;20047;-70
2023/12/03 04:55:34;;;;;;;27.23;5.15;;;;;;;;;;5052599;28;20040;-70
2023/12/03 04:58:39;;;;;;;16.38;2.92;;;;;;;;;;5052531;28;20063;-71
2023/12/03 05:01:44;;;;;;;13.48;2.88;;;;;;;;;;5052044;28;20420;-72
2023/12/03 05:04:48;;;;;;;16.90;2.78;;;;;;;;;;5063000;28;20421;-72
2023/12/03 05:07:52;;;;;;;11.70;2.47;;;;;;;;;;5052303;28;20048;-71
2023/12/03 05:10:56;;;;;;;13.88;2.00;;;;;;;;;;5051969;28;20047;-72
2023/12/03 05:14:01;;;;;;;12.93;2.60;;;;;;;;;;5052167;28;20036;-72
2023/12/03 05:17:05;;;;;;;17.55;2.80;;;;;;;;;;5063247;28;20071;-71
2023/12/03 05:20:10;;;;;;;16.13;2.60;;;;;;;;;;5092085;28;20067;-71
2023/12/03 05:23:14;;;;;;;9.07;2.45;;;;;;;;;;5092258;28;20648;-72
2023/12/03 05:26:18;;;;;;;14.68;2.70;;;;;;;;;;5091940;28;20040;-72
2023/12/03 05:29:25;;;;;;;12.55;2.70;;;;;;;;;;5092110;28;20052;-71
2023/12/03 05:32:28;;;;;;;18.67;3.25;;;;;;;;;;5079303;28;20047;-71
2023/12/03 05:35:35;;;;;;;14.70;2.58;;;;;;;;;;5092097;28;20110;-71
2023/12/03 05:38:40;;;;;;;13.38;2.47;;;;;;;;;;5091946;28;20042;-71
2023/12/03 05:41:44;;;;;;;12.93;3.33;;;;;;;;;;5091902;28;20039;-71
2023/12/03 05:44:48;;;;;;;13.52;2.70;;;;;;;;;;5091905;28;20447;-71
2023/12/03 05:47:53;;;;;;;14.68;2.80;;;;;;;;;;5091756;28;20047;-71
2023/12/03 05:50:57;;;;;;;14.73;2.80;;;;;;;;;;5091408;28;20055;-71
2023/12/03 05:54:01;;;;;;;11.00;2.40;;;;;;;;;;5091578;28;20499;-71
2023/12/03 05:57:06;;;;;;;12.63;3.47;;;;;;;;;;5091603;28;20502;-71
2023/12/03 06:00:10;;;;;;;14.32;3.05;;;;;;;;;;5091545;28;20043;-71
2023/12/03 06:03:14;;;;;;;15.98;2.97;;;;;;;;;;5078162;28;20047;-71
2023/12/03 06:06:19;;;;;;;11.10;2.60;;;;;;;;;;5079009;28;20047;-71
2023/12/03 06:09:23;;;;;;;10.90;2.38;;;;;;;;;;5091450;28;20046;-71
2023/12/03 06:12:30;;;;;;;18.83;6.28;;;;;;;;;;5091043;28;20511;-71
2023/12/03 06:15:34;;;;;;;19.88;6.50;;;;;;;;;;5091404;28;20047;-71
2023/12/03 06:18:38;;;;;;;25.27;7.82;;;;;;;;;;5091004;28;20055;-71
2023/12/03 06:21:42;;;;;;;16.88;4.65;;;;;;;;;;5091251;28;20051;-71
2023/12/03 06:24:47;;;;;;;17.13;4.68;;;;;;;;;;5091202;28;20399;-71
2023/12/03 06:27:51;;;;;;;13.38;4.55;;;;;;;;;;5091268;28;20574;-71
2023/12/03 06:30:56;;;;;;;19.35;5.20;;;;;;;;;;5091127;28;20047;-71
2023/12/03 06:34:00;;;;;;;16.75;4.88;;;;;;;;;;5090959;28;20035;-71
2023/12/03 06:37:06;;;;;;;16.25;4.93;;;;;;;;;;5091205;28;20518;-71
2023/12/03 06:40:10;;;;;;;25.45;4.95;;;;;;;;;;5091027;28;20043;-71
2023/12/03 06:43:14;;;;;;;18.05;4.95;;;;;;;;;;5090572;28;20102;-71
2023/12/03 06:46:19;;;;;;;24.20;7.10;;;;;;;;;;5090749;28;20611;-71
2023/12/03 06:49:23;;;;;;;29.85;9.50;;;;;;;;;;5090856;28;20039;-71
2023/12/03 06:52:27;;;;;;;23.55;8.80;;;;;;;;;;5090764;28;20055;-71
2023/12/03 06:55:31;;;;;;;28.50;11.20;;;;;;;;;;5090935;28;20039;-70
2023/12/03 06:58:36;;;;;;;19.13;6.10;;;;;;;;;;5091076;28;20506;-70
2023/12/03 07:01:40;;;;;;;21.58;6.57;;;;;;;;;;5090457;28;20403;-71
2023/12/03 07:04:44;;;;;;;23.23;7.40;;;;;;;;;;5091073;28;20058;-70
2023/12/03 07:07:51;;;;;;;22.95;5.80;;;;;;;;;;5090714;28;20479;-70
2023/12/03 07:10:55;;;;;;;21.70;5.55;;;12.60;99.90;;;;;;5090699;28;20048;-71
2023/12/03 07:13:59;;;;;;;18.63;7.57;;;;;;;;;;5090836;28;20046;-71
2023/12/03 07:17:03;;;;;;;44.25;17.15;;;;;;;;;;5094171;28;20051;-71
2023/12/03 07:20:11;;;;;;;25.50;9.63;;;13.90;99.90;;;;;;5094580;28;20174;-72
2023/12/03 07:23:15;;;;;;;27.40;8.13;;;;;;;;;;5094086;28;20039;-72
2023/12/03 07:26:19;;;;;;;21.88;8.45;;;;;;;;;;5094361;28;20514;-71
2023/12/03 07:29:24;;;;;;;21.52;8.65;;;;;;;;;;5094580;28;20047;-71
2023/12/03 07:32:28;;;;;;;21.63;7.18;;;;;;;;;;5094050;28;20051;-70
2023/12/03 07:35:32;;;;;;;18.23;6.30;;;;;;;;;;5094323;28;20045;-70
2023/12/03 07:38:36;;;;;;;20.33;7.45;;;;;;;;;;5094284;28;20147;-70
2023/12/03 07:41:41;;;;;;;29.63;7.28;;;;;;;;;;5093873;28;20043;-70
2023/12/03 07:44:46;;;;;;;23.25;9.55;;;;;;;;;;5093979;28;20039;-70
2023/12/03 07:47:50;;;;;;;21.63;7.55;;;;;;;;;;5093949;28;20388;-70
2023/12/03 07:50:55;;;;;;;23.70;8.90;;;;;;;;;;5093881;28;20059;-71
2023/12/03 07:53:59;;;;;;;21.48;8.57;;;;;;;;;;5094029;28;20102;-70
2023/12/03 07:57:04;;;;;;;19.38;7.55;;;;;;;;;;5093824;28;20051;-70
2023/12/03 08:00:08;;;;;;;25.98;8.18;;;;;;;;;;5093847;28;20063;-71
2023/12/03 08:03:16;;;;;;;25.75;8.40;;;;;;;;;;5093363;28;20043;-70
2023/12/03 08:06:20;;;;;;;20.75;8.05;;;;;;;;;;5093416;28;20043;-70
2023/12/03 08:09:25;;;;;;;22.25;6.90;;;;;;;;;;5093673;28;20047;-69
2023/12/03 08:12:30;;;;;;;21.20;6.47;;;;;;;;;;5093461;28;20047;-70
2023/12/03 08:15:35;;;;;;;21.75;6.53;;;;;;;;;;5093359;28;20047;-71
2023/12/03 08:18:40;;;;;;;15.70;5.70;;;;;;;;;;5093040;28;20051;-70
2023/12/03 08:21:47;;;;;;;20.83;5.90;;;;;;;;;;5093009;28;20039;-70
2023/12/03 08:24:52;;;;;;;20.13;5.25;;;;;;;;;;5093333;28;20419;-70
2023/12/03 08:27:56;;;;;;;21.25;5.53;;;;;;;;;;5092398;28;20491;-70
2023/12/03 08:31:01;;;;;;;17.70;2.90;;;;;;;;;;5080679;28;20055;-70
2023/12/03 08:34:08;;;;;;;14.40;3.38;;;;;;;;;;5093657;28;20062;-70
2023/12/03 08:37:13;;;;;;;15.82;3.85;;;;;;;;;;5093316;28;20506;-70
2023/12/03 08:40:17;;;;;;;17.73;3.50;;;;;;;;;;5093437;28;20047;-70
2023/12/03 08:43:22;;;;;;;20.73;5.15;;;;;;;;;;5092749;28;20044;-70
2023/12/03 08:46:26;;;;;;;14.18;3.90;;;;;;;;;;5093074;28;20047;-70
2023/12/03 08:49:30;;;;;;;17.85;7.43;;;;;;;;;;5092416;28;20039;-70
2023/12/03 08:52:35;;;;;;;20.83;6.13;;;;;;;;;;5092310;28;20055;-70
2023/12/03 08:55:41;;;;;;;18.90;5.15;;;;;;;;;;5092612;28;20047;-71
2023/12/03 08:58:45;;;;;;;14.95;3.90;;;;;;;;;;5092731;28;20399;-71
2023/12/03 09:01:50;;;;;;;18.05;5.03;;;;;;;;;;5092597;28;20047;-70
2023/12/03 09:04:54;;;;;;;18.45;3.70;;;;;;;;;;5092945;28;20392;-70
2023/12/03 09:07:59;;;;;;;19.20;3.58;;;;;;;;;;5092531;28;20167;-70
2023/12/03 09:11:05;;;;;;;18.00;4.80;;;;;;;;;;5092411;28;20054;-70
2023/12/03 09:14:09;;;;;;;22.92;5.00;;;;;;;;;;5092171;28;20043;-71
2023/12/03 09:17:13;;;;;;;19.85;4.13;;;;;;;;;;5092062;28;20055;-70
2023/12/03 09:20:17;;;;;;;18.95;3.50;;;;;;;;;;5092180;28;20043;-70
2023/12/03 09:23:25;;;;;;;16.17;3.25;;;;;;;;;;5091829;28;20059;-71
2023/12/03 09:26:29;;;;;;;19.15;4.45;;;;;;;;;;5092033;28;20511;-71
2023/12/03 09:29:33;;;;;;;17.38;3.72;;;;;;;;;;5092172;28;20047;-70
2023/12/03 09:32:37;;;;;;;16.40;3.50;;;;;;;;;;5091884;28;20055;-69
2023/12/03 09:35:42;;;;;;;15.93;3.70;;;;;;;;;;5092100;28;20051;-71
2023/12/03 09:38:46;;;;;;;20.40;3.30;;;;;;;;;;5090571;28;20102;-70
2023/12/03 09:41:51;;;;;;;15.55;3.65;;;;;;;;;;5091865;28;20043;-70
2023/12/03 09:45:04;;;;;;;12.82;3.25;;;20.00;82.80;;;;;;5091656;28;20043;-71
2023/12/03 09:48:10;;;;;;;15.80;3.38;;;19.30;81.40;;;;;;5091374;28;20039;-71
2023/12/03 09:51:16;;;;;;;22.83;4.30;;;17.40;79.20;;;;;;5091282;28;20055;-70
2023/12/03 09:54:21;;;;;;;15.88;3.13;;;;;;;;;;5091409;28;20035;-71
2023/12/03 09:57:29;;;;;;;20.35;3.30;;;;;;;;;;5078968;28;20051;-70
2023/12/03 10:00:39;;;;;;;22.50;3.92;;;19.60;81.40;;;;;;5091454;28;20039;-73
2023/12/03 10:03:43;;;;;;;26.40;3.75;;;;;;;;;;5091495;28;20396;-71
2023/12/03 10:06:50;;;;;;;22.67;4.53;;;20.10;81.50;;;;;;5091544;28;20043;-71
2023/12/03 10:09:58;;;;;;;27.58;4.85;;;19.90;80.70;;;;;;5091485;28;20051;-71
2023/12/03 10:13:04;;;;;;;16.73;3.97;;;19.90;80.20;;;;;;5091229;28;20055;-71
2023/12/03 10:16:13;;;;;;;29.65;3.95;;;19.80;79.50;;;;;;5091190;28;20510;-71
2023/12/03 10:19:22;;;;;;;18.88;3.55;;;19.80;79.20;;;;;;5091062;28;20134;-71
2023/12/03 10:22:34;;;;;;;36.83;4.20;;;20.00;79.80;;;;;;5090584;28;20063;-71
2023/12/03 10:25:38;;;;;;;23.90;4.30;;;;;;;;;;5091104;28;20070;-70
2023/12/03 10:28:43;;;;;;;13.25;3.65;;;;;;;;;;5091052;28;20039;-70
2023/12/03 10:31:50;;;;;;;24.17;4.18;;;19.80;79.10;;;;;;5090793;28;20527;-70
2023/12/03 10:34:56;;;;;;;27.95;4.38;;;;;;;;;;5091001;28;20114;-71
2023/12/03 10:38:00;;;;;;;12.05;3.45;;;;;;;;;;5091088;28;20043;-71
2023/12/03 10:41:08;;;;;;;18.73;3.70;;;19.80;77.90;;;;;;5078376;28;20043;-71
2023/12/03 10:44:21;;;;;;;17.63;3.63;;;19.70;77.40;;;;;;5091209;28;20051;-70
2023/12/03 10:47:26;;;;;;;24.02;4.35;;;;;;;;;;5090647;28;20059;-70
2023/12/03 10:50:31;;;;;;;27.70;4.63;;;;;;;;;;5092038;28;20059;-70
2023/12/03 10:53:37;;;;;;;24.50;4.93;;;19.60;77.10;;;;;;5094993;28;20058;-69
2023/12/03 10:56:42;;;;;;;27.17;3.92;;;;;;;;;;5094594;28;20499;-70
2023/12/03 10:59:50;;;;;;;21.40;4.07;;;19.40;78.70;;;;;;5094882;28;20043;-70
2023/12/03 11:03:08;;;;;;;21.52;4.75;;;19.00;79.60;;;;;;5094355;28;20047;-70
2023/12/03 11:06:14;;;;;;;21.63;6.07;;;19.10;81.50;;;;;;5094871;28;20046;-70
2023/12/03 11:09:18;;;;;;;18.88;4.07;;;;;;;;;;5094835;28;20502;-70
2023/12/03 11:12:24;;;;;;;20.40;4.65;;;;;;;;;;5094280;28;20059;-70
2023/12/03 11:15:28;;;;;;;23.85;4.20;;;19.20;82.20;;;;;;5094714;28;20043;-70
2023/12/03 11:18:33;;;;;;;26.90;4.60;;;;;;;;;;5094162;28;20055;-70
2023/12/03 11:22:01;;;;;;;27.08;4.75;;;;;;;;;;5093939;28;20051;-70
2023/12/03 11:25:05;;;;;;;24.45;4.00;;;;;;;;;;5081740;28;20039;-70
2023/12/03 11:28:11;;;;;;;27.65;4.47;;;;;;;;;;5094292;28;20066;-70
2023/12/03 11:31:15;;;;;;;29.30;4.85;;;;;;;;;;5093697;28;20073;-70
2023/12/03 11:34:22;;;;;;;20.05;4.80;;;;;;;;;;5094614;28;20047;-70
2023/12/03 11:37:27;;;;;;;21.63;4.68;;;;;;;;;;5094122;28;20039;-71
2023/12/03 11:40:34;;;;;;;26.75;4.72;;;17.40;84.70;;;;;;5094241;28;20051;-71
2023/12/03 11:43:42;;;;;;;21.95;4.03;;;;;;;;;;5094198;28;20047;-72
2023/12/03 11:46:51;;;;;;;19.75;4.60;;;17.20;84.10;;;;;;5094110;28;20051;-72
2023/12/03 11:49:56;;;;;;;14.65;3.47;;;;;;;;;;5094056;28;20043;-72
2023/12/03 11:53:00;;;;;;;22.52;5.78;;;;;;;;;;5093797;28;20047;-71
2023/12/03 11:56:05;;;;;;;24.17;4.95;;;;;;;;;;5093854;28;20035;-71
2023/12/03 11:59:13;;;;;;;22.83;5.32;;;;;;;;;;5094003;28;20047;-71
2023/12/03 12:02:18;;;;;;;26.88;4.75;;;;;;;;;;5079731;28;20036;-72
2023/12/03 12:05:22;;;;;;;23.50;6.43;;;;;;;;;;5093674;28;20047;-71
2023/12/03 12:08:27;;;;;;;19.63;5.10;;;;;;;;;;5093292;28;20043;-71
2023/12/03 12:11:33;;;;;;;17.33;3.67;;;;;;;;;;5093341;28;20051;-71
2023/12/03 12:14:37;;;;;;;20.20;3.53;;;;;;;;;;5093286;28;20043;-72
2023/12/03 12:17:42;;;;;;;22.15;4.47;;;;;;;;;;5093177;28;20049;-72
2023/12/03 12:20:47;;;;;;;22.08;5.05;;;;;;;;;;5093081;28;20063;-71
2023/12/03 12:23:51;;;;;;;16.05;4.40;;;;;;;;;;5093010;28;20066;-71
2023/12/03 12:26:55;;;;;;;25.17;4.10;;;;;;;;;;5093227;28;20038;-71
2023/12/03 12:30:00;;;;;;;23.90;4.40;;;;;;;;;;5092886;28;20522;-71
2023/12/03 12:33:04;;;;;;;18.50;3.92;;;;;;;;;;5093026;28;20051;-71
2023/12/03 12:36:09;;;;;;;20.55;4.22;;;;;;;;;;5093223;28;20039;-71
2023/12/03 12:39:25;;;;;;;25.95;5.50;;;16.30;86.60;;;;;;5093029;28;20129;-71
2023/12/03 12:42:29;;;;;;;23.35;5.00;;;;;;;;;;5092502;28;20047;-71
2023/12/03 12:45:34;;;;;;;21.80;5.40;;;;;;;;;;5092768;28;20055;-71
2023/12/03 12:48:38;;;;;;;24.10;4.78;;;;;;;;;;5092902;28;20043;-71
2023/12/03 12:51:42;;;;;;;28.02;4.85;;;;;;;;;;5092509;28;20051;-71
2023/12/03 12:54:51;;;;;;;28.13;7.55;;;;;;;;;;5080373;28;20043;-71
2023/12/03 12:57:55;;;;;;;22.90;6.53;;;;;;;;;;5092802;28;20047;-71
2023/12/03 13:01:00;;;;;;;22.27;5.07;;;;;;;;;;5092467;28;20561;-71
2023/12/03 13:04:07;;;;;;;26.17;5.70;;;15.00;86.80;;;;;;5093111;28;20035;-71
2023/12/03 13:07:11;;;;;;;20.98;5.60;;;;;;;;;;5092756;28;20043;-70
2023/12/03 13:10:15;;;;;;;21.50;4.80;;;;;;;;;;5092597;28;20537;-71
2023/12/03 13:13:19;;;;;;;25.05;5.00;;;;;;;;;;5079988;28;20067;-71
2023/12/03 13:16:24;;;;;;;32.60;6.68;;;;;;;;;;5092621;28;20051;-71
2023/12/03 13:19:32;;;;;;;30.80;7.63;;;;;;;;;;5092256;28;20067;-72
2023/12/03 13:22:36;;;;;;;26.65;7.07;;;;;;;;;;5092164;28;20047;-72
2023/12/03 13:25:40;;;;;;;26.77;6.32;;;;;;;;;;5092187;28;20059;-72
2023/12/03 13:28:46;;;;;;;15.73;6.43;;;;;;;;;;5091873;28;20050;-72
2023/12/03 13:31:50;;;;;;;24.95;6.20;;;;;;;;;;5091866;28;20054;-72
2023/12/03 13:34:54;;;;;;;22.90;5.68;;;;;;;;;;5092185;28;20051;-71
2023/12/03 13:37:58;;;;;;;23.98;6.25;;;;;;;;;;5092128;28;20039;-71
2023/12/03 13:41:03;;;;;;;31.95;6.45;;;;;;;;;;5091937;28;20043;-72
2023/12/03 13:44:07;;;;;;;26.58;6.63;;;;;;;;;;5091708;28;20038;-71
2023/12/03 13:47:13;;;;;;;34.53;13.15;;;;;;;;;;5091932;28;20051;-71
2023/12/03 13:50:18;;;;;;;53.80;22.88;;;;;;;;;;5091808;28;20031;-71
2023/12/03 13:53:22;;;;;;;80.15;37.75;;;;;;;;;;5091822;28;20055;-71
2023/12/03 13:56:26;;;;;;;79.07;35.15;;;;;;;;;;5091384;28;20503;-71
2023/12/03 13:59:30;;;;;;;55.75;22.23;;;;;;;;;;5091389;28;20039;-71
2023/12/03 14:02:36;;;;;;;30.17;8.13;;;;;;;;;;5091334;28;20510;-71
2023/12/03 14:05:41;;;;;;;19.67;4.43;;;;;;;;;;5091152;28;20059;-71
2023/12/03 14:08:45;;;;;;;17.60;4.35;;;;;;;;;;5091409;28;20051;-71
2023/12/03 14:11:49;;;;;;;25.08;4.95;;;;;;;;;;5091057;28;20051;-71
2023/12/03 14:14:54;;;;;;;27.05;6.05;;;;;;;;;;5091184;28;20039;-71
2023/12/03 14:17:58;;;;;;;30.67;5.90;;;;;;;;;;5090942;28;20054;-71
2023/12/03 14:21:02;;;;;;;29.33;8.07;;;;;;;;;;5090946;28;20047;-71
2023/12/03 14:24:10;;;;;;;26.70;6.13;;;;;;;;;;5090788;28;20051;-73
2023/12/03 14:27:14;;;;;;;25.73;7.25;;;;;;;;;;5091409;28;20039;-72
2023/12/03 14:30:19;;;;;;;20.38;6.88;;;;;;;;;;5091042;28;20502;-71
2023/12/03 14:33:23;;;;;;;25.38;5.95;;;;;;;;;;5091193;28;20055;-71
2023/12/03 14:36:27;;;;;;;30.02;8.52;;;;;;;;;;5091341;28;20043;-73
2023/12/03 14:39:34;;;;;;;30.77;9.00;;;;;;;;;;5091247;28;20047;-73
2023/12/03 14:42:40;;;;;;;34.40;11.63;;;16.10;90.70;;;;;;5091176;28;20043;-72
2023/12/03 14:45:44;;;;;;;34.35;10.40;;;;;;;;;;5091256;28;20063;-72
2023/12/03 14:48:48;;;;;;;31.70;8.75;;;;;;;;;;5090800;28;20039;-73
2023/12/03 14:51:56;;;;;;;27.90;8.20;;;;;;;;;;5090589;28;20059;-71
2023/12/03 14:55:00;;;;;;;27.95;8.02;;;;;;;;;;5090947;28;20059;-71
2023/12/03 14:58:05;;;;;;;38.40;8.02;;;;;;;;;;5090632;28;20035;-71
2023/12/03 15:01:09;;;;;;;28.88;7.03;;;;;;;;;;5090787;28;20043;-72
2023/12/03 15:04:13;;;;;;;28.85;8.32;;;;;;;;;;5090883;28;20506;-71
2023/12/03 15:07:18;;;;;;;27.35;9.02;;;;;;;;;;5078557;28;20387;-72
2023/12/03 15:10:22;;;;;;;28.23;10.95;;;;;;;;;;5090647;28;20047;-72
2023/12/03 15:13:26;;;;;;;34.90;10.43;;;;;;;;;;5090561;28;20408;-71
2023/12/03 15:16:32;;;;;;;40.58;14.75;;;;;;;;;;5078102;28;20047;-70
2023/12/03 15:19:37;;;;;;;34.97;14.13;;;;;;;;;;5090781;28;20051;-70
2023/12/03 15:22:42;;;;;;;34.30;12.65;;;;;;;;;;5090396;28;20051;-71
2023/12/03 15:25:46;;;;;;;33.85;9.52;;;;;;;;;;5090668;28;20039;-71
2023/12/03 15:28:51;;;;;;;42.15;11.98;;;;;;;;;;5090797;28;20039;-71
2023/12/03 15:31:55;;;;;;;41.65;13.07;;;;;;;;;;5090475;28;20684;-71
2023/12/03 15:34:59;;;;;;;38.47;14.50;;;;;;;;;;5090874;28;20047;-71
2023/12/03 15:38:03;;;;;;;47.25;16.48;;;;;;;;;;5094344;28;20054;-71
2023/12/03 15:41:09;;;;;;;49.80;19.60;;;;;;;;;;5094130;28;20043;-71
2023/12/03 15:44:13;;;;;;;51.80;17.52;;;;;;;;;;5094395;28;20360;-71
2023/12/03 15:47:17;;;;;;;63.05;17.58;;;;;;;;;;5093848;28;20050;-70
2023/12/03 15:50:23;;;;;;;38.00;16.15;;;;;;;;;;5094260;28;20071;-70
2023/12/03 15:53:27;;;;;;;58.33;22.48;;;;;;;;;;5093964;28;20055;-71
2023/12/03 15:56:31;;;;;;;63.15;27.67;;;;;;;;;;5093590;28;20035;-71
2023/12/03 15:59:36;;;;;;;54.65;24.83;;;;;;;;;;5081267;28;20043;-71
2023/12/03 16:02:40;;;;;;;62.65;25.25;;;;;;;;;;5093670;28;20050;-71
2023/12/03 16:05:44;;;;;;;53.20;23.40;;;;;;;;;;5093539;28;20047;-71
2023/12/03 16:08:49;;;;;;;54.45;20.95;;;;;;;;;;5093569;28;20039;-71
2023/12/03 16:11:55;;;;;;;64.25;21.60;;;;;;;;;;5093124;28;20043;-72
2023/12/03 16:15:03;;;;;;;54.33;20.88;;;;;;;;;;5093344;28;20043;-71
2023/12/03 16:18:08;;;;;;;58.53;24.10;;;;;;;;;;5093032;28;20051;-71
2023/12/03 16:21:12;;;;;;;75.05;28.25;;;;;;;;;;5093714;28;20403;-71
2023/12/03 16:24:16;;;;;;;51.28;21.30;;;;;;;;;;5093107;28;20055;-71
2023/12/03 16:27:21;;;;;;;58.30;25.42;;;;;;;;;;5093249;28;20050;-71
2023/12/03 16:30:25;;;;;;;58.72;25.75;;;;;;;;;;5093353;28;20039;-71
2023/12/03 16:33:30;;;;;;;61.45;25.38;;;;;;;;;;5092924;28;20055;-71
2023/12/03 16:36:34;;;;;;;51.28;24.23;;;;;;;;;;5093200;28;20047;-71
2023/12/03 16:39:40;;;;;;;57.80;24.45;;;;;;;;;;5093062;28;20059;-71
2023/12/03 16:42:44;;;;;;;57.45;28.63;;;;;;;;;;5093095;28;20046;-71
2023/12/03 16:45:48;;;;;;;68.85;29.63;;;;;;;;;;5093084;28;20391;-71
2023/12/03 16:48:56;;;;;;;77.28;36.78;;;;;;;;;;5092195;28;20491;-72
2023/12/03 16:52:01;;;;;;;80.97;38.97;;;;;;;;;;5092627;28;20105;-72
2023/12/03 16:55:06;;;;;;;73.97;36.30;;;;;;;;;;5092277;28;20035;-71
2023/12/03 16:58:11;;;;;;;58.45;27.55;;;;;;;;;;5092477;28;20047;-71
2023/12/03 17:01:15;;;;;;;26.23;12.18;;;;;;;;;;5092267;28;20047;-71
2023/12/03 17:04:22;;;;;;;35.17;15.00;;;;;;;;;;5092606;28;20047;-71
2023/12/03 17:07:26;;;;;;;19.38;6.47;;;;;;;;;;5092370;28;20399;-71
2023/12/03 17:10:32;;;;;;;16.05;5.88;;;;;;;;;;5092205;28;20050;-70
2023/12/03 17:13:37;;;;;;;20.50;6.68;;;;;;;;;;5092597;28;20418;-71
2023/12/03 17:16:41;;;;;;;18.88;7.35;;;;;;;;;;5091882;28;20043;-70
2023/12/03 17:19:45;;;;;;;27.63;10.10;;;;;;;;;;5092205;28;20055;-71
2023/12/03 17:22:49;;;;;;;31.70;11.25;;;;;;;;;;5092206;28;20395;-71
2023/12/03 17:25:54;;;;;;;18.13;8.07;;;;;;;;;;5091887;28;20051;-71
2023/12/03 17:28:58;;;;;;;23.13;8.07;;;;;;;;;;5092323;28;20040;-70
2023/12/03 17:32:02;;;;;;;30.17;8.82;;;;;;;;;;5091632;28;20043;-70
2023/12/03 17:35:07;;;;;;;28.88;13.88;;;;;;;;;;5091837;28;20534;-70
2023/12/03 17:38:11;;;;;;;23.92;9.55;;;;;;;;;;5091841;28;20051;-70
2023/12/03 17:41:15;;;;;;;18.27;7.25;;;;;;;;;;5091689;28;20043;-70
2023/12/03 17:44:19;;;;;;;20.77;6.97;;;;;;;;;;5092121;28;20043;-70
2023/12/03 17:47:26;;;;;;;23.50;9.55;;;;;;;;;;5091833;28;20044;-70
2023/12/03 17:50:30;;;;;;;18.25;6.70;;;;;;;;;;5091389;28;20042;-70
2023/12/03 17:53:34;;;;;;;23.67;10.90;;;;;;;;;;5091866;28;20128;-70
2023/12/03 17:56:38;;;;;;;24.70;9.27;;;;;;;;;;5091607;28;20059;-70